createdAt,value
2023-04-28T00:00:35.000Z,10.6
2023-04-28T00:01:42.000Z,10.6
2023-04-28T00:05:00.000Z,9.9
2023-04-28T00:06:05.000Z,9.3
2023-04-28T00:07:11.000Z,10.6
2023-04-28T00:08:17.000Z,9.9
2023-04-28T00:09:23.000Z,10.6
2023-04-28T00:11:35.000Z,9.9
2023-04-28T00:12:41.000Z,10.3
2023-04-28T00:13:48.000Z,9.9
2023-04-28T00:14:54.000Z,10.6
2023-04-28T00:16:00.000Z,10.3
2023-04-28T00:17:06.000Z,9.9
2023-04-28T00:19:18.000Z,10.3
2023-04-28T00:20:24.000Z,9.3
2023-04-28T00:21:29.000Z,9.3
2023-04-28T00:22:35.000Z,10.6
2023-04-28T00:23:41.000Z,10.3
2023-04-28T00:24:47.000Z,10.6
2023-04-28T00:25:53.000Z,10.3
2023-04-28T00:26:59.000Z,10.3
2023-04-28T00:28:05.000Z,9.6
2023-04-28T00:29:12.000Z,9.6
2023-04-28T00:30:18.000Z,10.3
2023-04-28T00:31:24.000Z,9.3
2023-04-28T00:32:30.000Z,9.9
2023-04-28T00:33:36.000Z,10.3
2023-04-28T00:34:41.000Z,9.6
2023-04-28T00:35:46.000Z,10.6
2023-04-28T00:36:52.000Z,9.9
2023-04-28T00:37:58.000Z,9.9
2023-04-28T00:39:04.000Z,9.9
2023-04-28T00:41:17.000Z,9.6
2023-04-28T00:42:23.000Z,10.9
2023-04-28T00:43:29.000Z,9.9
2023-04-28T00:44:35.000Z,10.3
2023-04-28T00:45:41.000Z,10.3
2023-04-28T00:47:53.000Z,9.9
2023-04-28T00:48:59.000Z,9.6
2023-04-28T00:50:05.000Z,9.9
2023-04-28T00:51:11.000Z,9.6
2023-04-28T00:52:17.000Z,9.6
2023-04-28T00:53:22.000Z,9.6
2023-04-28T00:55:34.000Z,9.9
2023-04-28T00:56:40.000Z,10.3
2023-04-28T00:58:52.000Z,10.3
2023-04-28T00:59:58.000Z,10.6
2023-04-28T01:01:04.000Z,9.6
2023-04-28T01:02:10.000Z,10.3
2023-04-28T01:03:16.000Z,9.6
2023-04-28T01:04:22.000Z,10.6
2023-04-28T01:05:28.000Z,9.9
2023-04-28T01:06:34.000Z,9.6
2023-04-28T01:07:40.000Z,10.3
2023-04-28T01:08:46.000Z,10.6
2023-04-28T01:12:05.000Z,9.6
2023-04-28T01:13:10.000Z,10.3
2023-04-28T01:14:16.000Z,9.3
2023-04-28T01:15:22.000Z,9.9
2023-04-28T01:16:28.000Z,9.9
2023-04-28T01:17:34.000Z,10.6
2023-04-28T01:18:40.000Z,9.3
2023-04-28T01:20:52.000Z,9.9
2023-04-28T01:21:58.000Z,9.9
2023-04-28T01:23:05.000Z,10.6
2023-04-28T01:24:11.000Z,9.6
2023-04-28T01:25:17.000Z,10.3
2023-04-28T01:26:23.000Z,10.3
2023-04-28T01:27:28.000Z,10.6
2023-04-28T01:28:34.000Z,10.6
2023-04-28T01:29:40.000Z,10.9
2023-04-28T01:30:46.000Z,9.6
2023-04-28T01:31:52.000Z,10.3
2023-04-28T01:32:58.000Z,10.6
2023-04-28T01:34:04.000Z,9.6
2023-04-28T01:35:10.000Z,9.6
2023-04-28T01:36:16.000Z,10.6
2023-04-28T01:37:21.000Z,9.9
2023-04-28T01:38:27.000Z,10.3
2023-04-28T01:39:33.000Z,10.3
2023-04-28T01:40:39.000Z,10.3
2023-04-28T01:42:51.000Z,9.6
2023-04-28T01:43:57.000Z,9.3
2023-04-28T01:45:03.000Z,10.6
2023-04-28T01:46:09.000Z,9.3
2023-04-28T01:47:15.000Z,10.3
2023-04-28T01:48:21.000Z,9.6
2023-04-28T01:49:27.000Z,9.6
2023-04-28T01:50:33.000Z,9.6
2023-04-28T01:51:40.000Z,9.3
2023-04-28T01:52:46.000Z,10.6
2023-04-28T01:53:52.000Z,9.6
2023-04-28T01:54:58.000Z,9.6
2023-04-28T01:56:04.000Z,9.9
2023-04-28T01:57:09.000Z,9.6
2023-04-28T01:58:15.000Z,9.9
2023-04-28T01:59:21.000Z,10.3
2023-04-28T02:00:27.000Z,10.3
2023-04-28T02:01:33.000Z,10.3
2023-04-28T02:02:38.000Z,9.3
2023-04-28T02:03:43.000Z,9.9
2023-04-28T02:04:49.000Z,9.3
2023-04-28T02:05:56.000Z,9.9
2023-04-28T02:07:02.000Z,9.9
2023-04-28T02:08:08.000Z,9.9
2023-04-28T02:09:14.000Z,9.9
2023-04-28T02:10:20.000Z,9.9
2023-04-28T02:12:32.000Z,9.9
2023-04-28T02:14:44.000Z,10.3
2023-04-28T02:15:50.000Z,9.6
2023-04-28T02:16:55.000Z,9.9
2023-04-28T02:18:02.000Z,10.6
2023-04-28T02:19:07.000Z,9.3
2023-04-28T02:20:13.000Z,9.3
2023-04-28T02:21:19.000Z,10.9
2023-04-28T02:22:25.000Z,9.6
2023-04-28T02:23:31.000Z,9.9
2023-04-28T02:24:37.000Z,9.9
2023-04-28T02:25:43.000Z,9.9
2023-04-28T02:26:49.000Z,9.9
2023-04-28T02:27:55.000Z,9.9
2023-04-28T02:30:07.000Z,10.6
2023-04-28T02:31:13.000Z,10.3
2023-04-28T02:32:19.000Z,9.6
2023-04-28T02:33:25.000Z,10.3
2023-04-28T02:34:31.000Z,9.6
2023-04-28T02:35:37.000Z,9.6
2023-04-28T02:37:49.000Z,9.3
2023-04-28T02:38:54.000Z,9.9
2023-04-28T02:40:00.000Z,9.6
2023-04-28T02:41:06.000Z,9.9
2023-04-28T02:42:11.000Z,9.3
2023-04-28T02:43:17.000Z,9.9
2023-04-28T02:44:23.000Z,10.6
2023-04-28T02:45:29.000Z,9.9
2023-04-28T02:46:35.000Z,9.6
2023-04-28T02:47:42.000Z,9.6
2023-04-28T02:48:48.000Z,10.9
2023-04-28T02:49:54.000Z,9
2023-04-28T02:52:06.000Z,9.6
2023-04-28T02:53:12.000Z,10.3
2023-04-28T02:54:18.000Z,9.3
2023-04-28T02:55:24.000Z,9.3
2023-04-28T02:56:29.000Z,9.6
2023-04-28T02:57:35.000Z,9
2023-04-28T03:00:53.000Z,9.3
2023-04-28T03:02:00.000Z,9.3
2023-04-28T03:03:05.000Z,9.3
2023-04-28T03:04:11.000Z,9.3
2023-04-28T03:05:17.000Z,9.9
2023-04-28T03:06:23.000Z,9.6
2023-04-28T03:07:29.000Z,9.9
2023-04-28T03:08:35.000Z,9.6
2023-04-28T03:10:47.000Z,9.9
2023-04-28T03:11:53.000Z,9.3
2023-04-28T03:12:59.000Z,9.3
2023-04-28T03:14:05.000Z,9.6
2023-04-28T03:15:11.000Z,9.6
2023-04-28T03:16:18.000Z,9.3
2023-04-28T03:17:24.000Z,9.3
2023-04-28T03:18:29.000Z,9.6
2023-04-28T03:19:35.000Z,9.6
2023-04-28T03:21:47.000Z,9.3
2023-04-28T03:22:53.000Z,9.9
2023-04-28T03:23:59.000Z,9.3
2023-04-28T03:25:05.000Z,9.6
2023-04-28T03:26:11.000Z,9.3
2023-04-28T03:27:17.000Z,10.3
2023-04-28T03:28:23.000Z,9.9
2023-04-28T03:30:36.000Z,9
2023-04-28T03:33:54.000Z,9.3
2023-04-28T03:35:00.000Z,9.6
2023-04-28T03:36:05.000Z,9.6
2023-04-28T03:37:11.000Z,9.9
2023-04-28T03:38:17.000Z,9
2023-04-28T03:39:23.000Z,9.3
2023-04-28T03:40:29.000Z,9.3
2023-04-28T03:41:35.000Z,9.6
2023-04-28T03:42:41.000Z,9.9
2023-04-28T03:43:47.000Z,9.6
2023-04-28T03:44:53.000Z,9.9
2023-04-28T03:47:06.000Z,9.3
2023-04-28T03:48:12.000Z,9
2023-04-28T03:49:18.000Z,9.6
2023-04-28T03:50:23.000Z,8.7
2023-04-28T03:51:29.000Z,9.3
2023-04-28T03:54:47.000Z,9.9
2023-04-28T03:55:53.000Z,9.6
2023-04-28T03:56:59.000Z,9.3
2023-04-28T03:58:05.000Z,9.3
2023-04-28T03:59:12.000Z,9.6
2023-04-28T04:00:18.000Z,9.6
2023-04-28T04:01:24.000Z,9.9
2023-04-28T04:02:30.000Z,9.6
2023-04-28T04:03:36.000Z,9.9
2023-04-28T04:04:41.000Z,9.3
2023-04-28T04:06:53.000Z,10.3
2023-04-28T04:07:59.000Z,9
2023-04-28T04:09:05.000Z,10.3
2023-04-28T04:10:11.000Z,9
2023-04-28T04:11:17.000Z,10.3
2023-04-28T04:13:30.000Z,9.6
2023-04-28T04:14:36.000Z,10.6
2023-04-28T04:16:48.000Z,9.6
2023-04-28T04:17:54.000Z,10.6
2023-04-28T04:18:59.000Z,10.3
2023-04-28T04:20:05.000Z,9.3
2023-04-28T04:21:11.000Z,9.3
2023-04-28T04:22:17.000Z,9.3
2023-04-28T04:23:23.000Z,9.6
2023-04-28T04:24:29.000Z,9.6
2023-04-28T04:25:35.000Z,9
2023-04-28T04:26:42.000Z,9.6
2023-04-28T04:27:48.000Z,9.6
2023-04-28T04:28:54.000Z,9.3
2023-04-28T04:31:06.000Z,9.3
2023-04-28T04:33:18.000Z,9.3
2023-04-28T04:34:24.000Z,9.6
2023-04-28T04:35:30.000Z,9.9
2023-04-28T04:36:35.000Z,9.6
2023-04-28T04:39:53.000Z,9.6
2023-04-28T04:41:00.000Z,9.9
2023-04-28T04:42:06.000Z,9.3
2023-04-28T04:43:12.000Z,9.6
2023-04-28T04:44:18.000Z,9.3
2023-04-28T04:46:30.000Z,9.6
2023-04-28T04:47:36.000Z,9.3
2023-04-28T04:48:42.000Z,8.7
2023-04-28T04:49:48.000Z,9.3
2023-04-28T04:52:00.000Z,9.3
2023-04-28T04:53:06.000Z,9.6
2023-04-28T04:54:12.000Z,9.9
2023-04-28T04:55:18.000Z,9
2023-04-28T04:56:25.000Z,9.3
2023-04-28T04:57:31.000Z,9.6
2023-04-28T04:58:36.000Z,9.3
2023-04-28T05:00:48.000Z,9.6
2023-04-28T05:01:54.000Z,9.9
2023-04-28T05:03:00.000Z,9.3
2023-04-28T05:04:06.000Z,9.6
2023-04-28T05:05:12.000Z,9.6
2023-04-28T05:06:18.000Z,9.6
2023-04-28T05:08:30.000Z,9
2023-04-28T05:09:36.000Z,9.9
2023-04-28T05:10:43.000Z,8.3
2023-04-28T05:11:49.000Z,9.3
2023-04-28T05:14:01.000Z,9.9
2023-04-28T05:16:13.000Z,9.3
2023-04-28T05:17:18.000Z,9.3
2023-04-28T05:19:30.000Z,8.7
2023-04-28T05:20:36.000Z,9.6
2023-04-28T05:22:48.000Z,9.3
2023-04-28T05:23:54.000Z,9.3
2023-04-28T05:27:13.000Z,9.3
2023-04-28T05:28:19.000Z,9.6
2023-04-28T05:29:25.000Z,9.6
2023-04-28T05:30:31.000Z,9.3
2023-04-28T05:31:36.000Z,9
2023-04-28T05:36:00.000Z,9.6
2023-04-28T05:37:07.000Z,9.3
2023-04-28T05:39:19.000Z,9.3
2023-04-28T05:41:31.000Z,9.9
2023-04-28T05:42:37.000Z,9.3
2023-04-28T05:43:43.000Z,9.6
2023-04-28T05:45:55.000Z,9
2023-04-28T05:48:07.000Z,9
2023-04-28T05:49:13.000Z,9.9
2023-04-28T05:50:19.000Z,9.9
2023-04-28T05:51:24.000Z,10.6
2023-04-28T05:52:31.000Z,9.6
2023-04-28T05:53:37.000Z,9
2023-04-28T05:55:49.000Z,9.6
2023-04-28T05:56:55.000Z,9.9
2023-04-28T05:58:01.000Z,9
2023-04-28T06:01:19.000Z,9.3
2023-04-28T06:02:25.000Z,9.3
2023-04-28T06:03:31.000Z,9.3
2023-04-28T06:04:37.000Z,9.3
2023-04-28T06:05:43.000Z,9.6
2023-04-28T06:07:56.000Z,9.3
2023-04-28T06:09:02.000Z,9.3
2023-04-28T06:10:07.000Z,9.3
2023-04-28T06:11:13.000Z,9.6
2023-04-28T06:12:19.000Z,9
2023-04-28T06:13:25.000Z,8.7
2023-04-28T06:14:31.000Z,10.3
2023-04-28T06:15:37.000Z,9.6
2023-04-28T06:17:49.000Z,9.3
2023-04-28T06:18:55.000Z,8.7
2023-04-28T06:20:02.000Z,9.6
2023-04-28T06:22:14.000Z,9.6
2023-04-28T06:23:20.000Z,9.3
2023-04-28T06:24:25.000Z,10.9
2023-04-28T06:25:31.000Z,9.3
2023-04-28T06:28:49.000Z,9.6
2023-04-28T06:29:55.000Z,9.3
2023-04-28T06:31:01.000Z,9.3
2023-04-28T06:34:19.000Z,10.6
2023-04-28T06:40:56.000Z,9.9
2023-04-28T06:42:02.000Z,8.7
2023-04-28T06:43:08.000Z,9.3
2023-04-28T06:44:14.000Z,9.6
2023-04-28T06:45:20.000Z,9.6
2023-04-28T06:47:33.000Z,9.3
2023-04-28T06:48:38.000Z,9.9
2023-04-28T06:51:56.000Z,10.3
2023-04-28T06:54:08.000Z,9.6
2023-04-28T06:55:14.000Z,9.3
2023-04-28T06:56:20.000Z,9
2023-04-28T06:57:26.000Z,9.9
2023-04-28T06:58:32.000Z,9
2023-04-28T06:59:38.000Z,9.3
2023-04-28T07:00:44.000Z,9.3
2023-04-28T07:01:50.000Z,9.6
2023-04-28T07:02:56.000Z,9.3
2023-04-28T07:04:02.000Z,9
2023-04-28T07:05:08.000Z,8.3
2023-04-28T07:07:20.000Z,9
2023-04-28T07:08:26.000Z,9.3
2023-04-28T07:09:32.000Z,9
2023-04-28T07:10:38.000Z,9.3
2023-04-28T07:12:50.000Z,9
2023-04-28T07:13:56.000Z,9.3
2023-04-28T07:15:03.000Z,9.6
2023-04-28T07:16:09.000Z,9.6
2023-04-28T07:17:14.000Z,9.6
2023-04-28T07:18:20.000Z,9.3
2023-04-28T07:20:32.000Z,9.3
2023-04-28T07:23:50.000Z,9
2023-04-28T07:24:56.000Z,9
2023-04-28T07:27:08.000Z,9.9
2023-04-28T07:28:14.000Z,9
2023-04-28T07:29:20.000Z,9.6
2023-04-28T07:30:27.000Z,9
2023-04-28T07:31:33.000Z,9.3
2023-04-28T07:33:44.000Z,9
2023-04-28T07:34:50.000Z,9.3
2023-04-28T07:35:56.000Z,9
2023-04-28T07:38:08.000Z,9.3
2023-04-28T07:40:20.000Z,9.3
2023-04-28T07:42:33.000Z,9.9
2023-04-28T07:43:39.000Z,9.3
2023-04-28T07:45:51.000Z,9.3
2023-04-28T07:46:57.000Z,9.3
2023-04-28T07:48:03.000Z,8.3
2023-04-28T07:49:08.000Z,9.6
2023-04-28T07:50:14.000Z,9.9
2023-04-28T07:51:20.000Z,9.6
2023-04-28T07:52:26.000Z,9
2023-04-28T07:53:32.000Z,9.3
2023-04-28T07:54:38.000Z,9
2023-04-28T07:55:44.000Z,8.7
2023-04-28T07:56:50.000Z,9.9
2023-04-28T07:57:57.000Z,9
2023-04-28T07:59:03.000Z,9.3
2023-04-28T08:01:15.000Z,9.3
2023-04-28T08:02:21.000Z,9
2023-04-28T08:03:26.000Z,9
2023-04-28T08:04:32.000Z,9.6
2023-04-28T08:05:38.000Z,9
2023-04-28T08:07:50.000Z,9.3
2023-04-28T08:10:02.000Z,9.3
2023-04-28T08:11:09.000Z,9.3
2023-04-28T08:12:15.000Z,9.9
2023-04-28T08:13:21.000Z,9.9
2023-04-28T08:14:27.000Z,9.3
2023-04-28T08:15:33.000Z,10.6
2023-04-28T08:16:39.000Z,9.9
2023-04-28T08:17:44.000Z,9.3
2023-04-28T08:18:50.000Z,9
2023-04-28T08:21:02.000Z,9.6
2023-04-28T08:22:08.000Z,9.6
2023-04-28T08:23:14.000Z,9
2023-04-28T08:24:20.000Z,9
2023-04-28T08:25:27.000Z,9
2023-04-28T08:26:33.000Z,9
2023-04-28T08:29:51.000Z,9.6
2023-04-28T08:30:57.000Z,10.6
2023-04-28T08:32:02.000Z,9.3
2023-04-28T08:33:08.000Z,9.3
2023-04-28T08:34:14.000Z,9.6
2023-04-28T08:35:20.000Z,9.9
2023-04-28T08:36:26.000Z,9.3
2023-04-28T08:37:32.000Z,9.6
2023-04-28T08:39:45.000Z,9.3
2023-04-28T08:40:51.000Z,9.3
2023-04-28T08:41:57.000Z,9.3
2023-04-28T08:44:09.000Z,9.6
2023-04-28T08:45:15.000Z,9.9
2023-04-28T08:46:21.000Z,9.6
2023-04-28T08:47:26.000Z,9.6
2023-04-28T08:48:32.000Z,9
2023-04-28T08:49:38.797Z,9.3
2023-04-28T08:50:44.000Z,9.6
2023-04-28T08:51:50.000Z,9.9
2023-04-28T08:52:57.000Z,9.6
2023-04-28T08:54:03.000Z,10.6
2023-04-28T08:55:09.000Z,9.9
2023-04-28T08:56:15.000Z,9.9
2023-04-28T08:57:21.000Z,10.6
2023-04-28T08:58:27.000Z,9.9
2023-04-28T08:59:33.000Z,8.7
2023-04-28T09:00:39.000Z,9.6
2023-04-28T09:03:57.000Z,8.7
2023-04-28T09:06:09.000Z,9.9
2023-04-28T09:07:16.000Z,9.6
2023-04-28T09:08:22.000Z,9.9
2023-04-28T09:09:27.000Z,9.3
2023-04-28T09:10:33.000Z,9.9
2023-04-28T09:11:39.000Z,10.3
2023-04-28T09:13:51.000Z,10.3
2023-04-28T09:14:57.000Z,9.6
2023-04-28T09:17:09.000Z,9
2023-04-28T09:18:15.000Z,9.3
2023-04-28T09:19:21.000Z,9.9
2023-04-28T09:20:27.000Z,9.6
2023-04-28T09:21:33.000Z,9.9
2023-04-28T09:23:46.000Z,9.3
2023-04-28T09:24:51.000Z,8.7
2023-04-28T09:25:57.000Z,9.9
2023-04-28T09:29:15.000Z,9.9
2023-04-28T09:30:21.000Z,9.3
2023-04-28T09:31:27.000Z,10.9
2023-04-28T09:32:33.000Z,9.6
2023-04-28T09:33:39.000Z,9.6
2023-04-28T09:36:58.000Z,9.9
2023-04-28T09:38:04.000Z,10.9
2023-04-28T09:39:10.000Z,9.9
2023-04-28T09:40:16.000Z,9.9
2023-04-28T09:41:22.000Z,9.6
2023-04-28T09:42:27.000Z,9.3
2023-04-28T09:43:33.000Z,10.6
2023-04-28T09:44:39.000Z,9.6
2023-04-28T09:46:51.000Z,9.6
2023-04-28T09:47:57.000Z,9.6
2023-04-28T09:49:03.000Z,9.3
2023-04-28T09:50:10.000Z,9.6
2023-04-28T09:52:22.000Z,9.6
2023-04-28T09:53:28.000Z,9.9
2023-04-28T09:54:34.000Z,9.9
2023-04-28T09:55:40.000Z,10.3
2023-04-28T09:56:46.000Z,10.6
2023-04-28T09:58:58.000Z,9.9
2023-04-28T10:01:10.000Z,9.6
2023-04-28T10:02:16.000Z,9.6
2023-04-28T10:03:22.000Z,9.9
2023-04-28T10:05:34.000Z,9.3
2023-04-28T10:06:40.000Z,9.3
2023-04-28T10:09:58.000Z,9.6
2023-04-28T10:13:16.000Z,9.9
2023-04-28T10:14:22.000Z,10.3
2023-04-28T10:15:28.000Z,9.3
2023-04-28T10:16:34.000Z,9.6
2023-04-28T10:20:59.000Z,9.6
2023-04-28T10:22:05.000Z,9.9
2023-04-28T10:23:11.000Z,9.3
2023-04-28T10:25:23.000Z,9.9
2023-04-28T10:26:28.000Z,9.9
2023-04-28T10:27:34.000Z,9.9
2023-04-28T10:28:40.000Z,9.9
2023-04-28T10:30:52.000Z,9.9
2023-04-28T10:31:59.000Z,9.6
2023-04-28T10:33:05.000Z,10.3
2023-04-28T10:34:10.000Z,9.6
2023-04-28T10:35:16.000Z,9.6
2023-04-28T10:36:22.000Z,11.2
2023-04-28T10:37:28.000Z,9.9
2023-04-28T10:38:34.000Z,9.6
2023-04-28T10:39:40.000Z,10.6
2023-04-28T10:41:52.000Z,11.2
2023-04-28T10:44:04.000Z,9.6
2023-04-28T10:45:10.000Z,9.6
2023-04-28T10:46:16.000Z,9.9
2023-04-28T10:47:23.000Z,10.9
2023-04-28T10:48:28.000Z,10.6
2023-04-28T10:49:34.000Z,9.6
2023-04-28T10:50:40.000Z,9.3
2023-04-28T10:52:52.000Z,9.9
2023-04-28T10:53:58.000Z,10.6
2023-04-28T10:55:04.000Z,9.9
2023-04-28T10:56:10.000Z,9.9
2023-04-28T10:57:16.000Z,9.9
2023-04-28T10:58:22.000Z,9.9
2023-04-28T10:59:28.000Z,9.6
2023-04-28T11:00:35.000Z,9.6
2023-04-28T11:01:41.000Z,10.3
2023-04-28T11:03:53.000Z,10.6
2023-04-28T11:04:59.000Z,9.9
2023-04-28T11:06:05.000Z,10.6
2023-04-28T11:07:11.000Z,10.3
2023-04-28T11:08:17.000Z,9.9
2023-04-28T11:09:23.000Z,9.6
2023-04-28T11:10:28.000Z,10.3
2023-04-28T11:11:34.000Z,9.9
2023-04-28T11:12:40.000Z,10.3
2023-04-28T11:13:46.000Z,9.9
2023-04-28T11:14:52.000Z,10.6
2023-04-28T11:17:05.000Z,10.3
2023-04-28T11:18:11.000Z,10.3
2023-04-28T11:19:17.000Z,9.6
2023-04-28T11:20:23.000Z,10.6
2023-04-28T11:21:29.000Z,10.6
2023-04-28T11:22:35.000Z,9.9
2023-04-28T11:23:41.000Z,10.6
2023-04-28T11:24:46.000Z,10.6
2023-04-28T11:25:52.000Z,10.3
2023-04-28T11:26:57.000Z,10.3
2023-04-28T11:29:09.000Z,10.3
2023-04-28T11:31:22.000Z,11.2
2023-04-28T11:32:27.000Z,10.9
2023-04-28T11:33:33.000Z,9.9
2023-04-28T11:34:39.000Z,10.6
2023-04-28T11:35:45.000Z,10.9
2023-04-28T11:36:51.000Z,11.2
2023-04-28T11:37:57.000Z,10.3
2023-04-28T11:39:03.000Z,9.9
2023-04-28T11:40:09.000Z,11.2
2023-04-28T11:41:15.000Z,10.6
2023-04-28T11:42:21.000Z,9.9
2023-04-28T11:43:27.000Z,10.6
2023-04-28T11:44:34.000Z,10.6
2023-04-28T11:45:40.000Z,10.9
2023-04-28T11:47:51.000Z,10.6
2023-04-28T11:50:03.000Z,10.9
2023-04-28T11:51:08.000Z,11.2
2023-04-28T11:52:13.000Z,11.2
2023-04-28T11:53:19.000Z,10.3
2023-04-28T11:55:31.000Z,11.2
2023-04-28T11:56:37.000Z,10.9
2023-04-28T11:57:43.000Z,10.6
2023-04-28T11:59:56.000Z,10.3
2023-04-28T12:01:02.000Z,10.3
2023-04-28T12:02:08.000Z,10.9
2023-04-28T12:03:14.000Z,10.9
2023-04-28T12:04:20.000Z,10.9
2023-04-28T12:05:26.000Z,10.9
2023-04-28T12:06:32.000Z,10.3
2023-04-28T12:09:49.000Z,9.9
2023-04-28T12:10:55.000Z,10.6
2023-04-28T12:12:02.000Z,11.2
2023-04-28T12:13:08.000Z,11.2
2023-04-28T12:14:14.000Z,9.9
2023-04-28T12:15:20.000Z,10.9
2023-04-28T12:16:26.000Z,10.6
2023-04-28T12:17:32.000Z,10.6
2023-04-28T12:18:38.000Z,10.6
2023-04-28T12:19:44.000Z,11.2
2023-04-28T12:20:50.000Z,10.6
2023-04-28T12:21:56.000Z,11.9
2023-04-28T12:23:01.000Z,10.3
2023-04-28T12:24:07.000Z,10.6
2023-04-28T12:25:13.000Z,10.9
2023-04-28T12:26:20.000Z,10.9
2023-04-28T12:27:26.000Z,10.6
2023-04-28T12:28:32.000Z,10.9
2023-04-28T12:31:50.000Z,11.2
2023-04-28T12:32:56.000Z,11.2
2023-04-28T12:34:02.000Z,11.2
2023-04-28T12:35:08.000Z,10.6
2023-04-28T12:36:14.000Z,11.2
2023-04-28T12:37:19.000Z,10.9
2023-04-28T12:38:25.000Z,10.9
2023-04-28T12:39:31.000Z,10.9
2023-04-28T12:40:37.000Z,11.6
2023-04-28T12:41:44.000Z,10.3
2023-04-28T12:42:50.000Z,11.2
2023-04-28T12:43:56.000Z,11.2
2023-04-28T12:45:02.000Z,11.6
2023-04-28T12:46:08.000Z,11.6
2023-04-28T12:48:20.000Z,10.9
2023-04-28T12:49:26.000Z,10.9
2023-04-28T12:50:32.000Z,11.6
2023-04-28T12:51:37.000Z,11.2
2023-04-28T12:52:43.000Z,10.9
2023-04-28T12:54:55.000Z,10.6
2023-04-28T12:56:01.000Z,11.2
2023-04-28T12:57:08.000Z,11.9
2023-04-28T12:58:14.000Z,11.9
2023-04-28T12:59:20.000Z,11.2
2023-04-28T13:01:32.000Z,11.6
2023-04-28T13:02:38.000Z,10.6
2023-04-28T13:04:50.000Z,10.9
2023-04-28T13:05:56.000Z,10.9
2023-04-28T13:08:08.000Z,10.9
2023-04-28T13:09:14.000Z,11.2
2023-04-28T13:10:20.000Z,10.9
2023-04-28T13:11:26.000Z,10.9
2023-04-28T13:12:32.000Z,11.6
2023-04-28T13:13:38.000Z,11.6
2023-04-28T13:15:50.000Z,11.6
2023-04-28T13:16:56.000Z,11.2
2023-04-28T13:18:02.000Z,10.9
2023-04-28T13:19:08.000Z,11.6
2023-04-28T13:21:20.000Z,10.6
2023-04-28T13:22:26.000Z,11.6
2023-04-28T13:23:32.000Z,11.2
2023-04-28T13:24:38.000Z,11.6
2023-04-28T13:25:44.000Z,11.6
2023-04-28T13:26:50.000Z,10.9
2023-04-28T13:27:56.000Z,11.6
2023-04-28T13:30:08.000Z,11.2
2023-04-28T13:31:14.000Z,11.2
2023-04-28T13:32:20.000Z,11.6
2023-04-28T13:33:26.000Z,11.2
2023-04-28T13:34:32.000Z,11.2
2023-04-28T13:35:38.000Z,11.2
2023-04-28T13:36:44.000Z,10.6
2023-04-28T13:38:56.000Z,11.6
2023-04-28T13:41:08.000Z,10.9
2023-04-28T13:42:14.000Z,11.6
2023-04-28T13:43:20.000Z,12.5
2023-04-28T13:44:26.000Z,11.2
2023-04-28T13:45:32.000Z,11.2
2023-04-28T13:46:38.000Z,11.2
2023-04-28T13:48:50.000Z,11.2
2023-04-28T13:49:56.000Z,11.6
2023-04-28T13:51:03.000Z,11.2
2023-04-28T13:52:09.000Z,11.6
2023-04-28T13:53:15.000Z,11.2
2023-04-28T13:54:21.000Z,11.2
2023-04-28T13:56:32.000Z,10.9
2023-04-28T13:57:38.000Z,10.9
2023-04-28T13:58:44.000Z,11.6
2023-04-28T13:59:50.000Z,11.2
2023-04-28T14:00:56.000Z,11.6
2023-04-28T14:02:02.000Z,12.2
2023-04-28T14:03:08.000Z,11.2
2023-04-28T14:04:14.000Z,11.9
2023-04-28T14:05:20.000Z,11.2
2023-04-28T14:07:33.000Z,11.6
2023-04-28T14:08:39.000Z,11.6
2023-04-28T14:09:44.000Z,12.2
2023-04-28T14:10:50.000Z,11.6
2023-04-28T14:13:02.000Z,11.9
2023-04-28T14:14:08.000Z,11.2
2023-04-28T14:15:14.000Z,11.6
2023-04-28T14:16:19.000Z,10.9
2023-04-28T14:17:25.000Z,11.2
2023-04-28T14:18:31.000Z,10.9
2023-04-28T14:19:37.000Z,10.6
2023-04-28T14:20:43.000Z,11.6
2023-04-28T14:21:50.000Z,10.9
2023-04-28T14:22:56.000Z,11.6
2023-04-28T14:25:08.000Z,11.2
2023-04-28T14:26:14.000Z,10.6
2023-04-28T14:27:20.000Z,11.6
2023-04-28T14:28:26.000Z,11.2
2023-04-28T14:29:32.000Z,11.2
2023-04-28T14:30:37.000Z,11.2
2023-04-28T14:32:49.000Z,11.6
2023-04-28T14:33:55.000Z,11.9
2023-04-28T14:35:01.000Z,11.2
2023-04-28T14:36:08.000Z,11.9
2023-04-28T14:37:14.000Z,11.2
2023-04-28T14:38:20.000Z,11.9
2023-04-28T14:39:26.000Z,12.2
2023-04-28T14:40:32.000Z,11.6
2023-04-28T14:41:38.000Z,11.2
2023-04-28T14:43:50.000Z,11.6
2023-04-28T14:44:56.000Z,11.2
2023-04-28T14:47:08.000Z,11.2
2023-04-28T14:48:14.000Z,11.6
2023-04-28T14:49:21.000Z,11.2
2023-04-28T14:51:32.000Z,10.9
2023-04-28T14:52:38.000Z,11.6
2023-04-28T14:53:44.000Z,11.2
2023-04-28T14:54:50.000Z,11.2
2023-04-28T14:55:56.000Z,11.6
2023-04-28T14:58:08.000Z,11.2
2023-04-28T15:00:20.000Z,11.2
2023-04-28T15:01:26.000Z,11.2
2023-04-28T15:02:32.000Z,12.2
2023-04-28T15:05:51.000Z,11.2
2023-04-28T15:06:57.000Z,12.2
2023-04-28T15:08:03.000Z,12.2
2023-04-28T15:09:09.000Z,10.6
2023-04-28T15:10:15.000Z,11.6
2023-04-28T15:11:21.000Z,12.2
2023-04-28T15:12:27.000Z,11.2
2023-04-28T15:13:33.000Z,12.2
2023-04-28T15:14:38.000Z,11.9
2023-04-28T15:16:50.000Z,11.6
2023-04-28T15:17:56.000Z,11.6
2023-04-28T15:20:09.000Z,11.9
2023-04-28T15:21:15.000Z,12.2
2023-04-28T15:22:21.000Z,11.6
2023-04-28T15:23:27.000Z,11.2
2023-04-28T15:24:33.000Z,11.2
2023-04-28T15:25:39.000Z,11.6
2023-04-28T15:26:45.000Z,11.9
2023-04-28T15:27:51.000Z,11.6
2023-04-28T15:28:57.000Z,11.2
2023-04-28T15:32:15.000Z,11.6
2023-04-28T15:33:21.000Z,11.2
2023-04-28T15:35:33.000Z,11.2
2023-04-28T15:36:39.000Z,11.6
2023-04-28T15:37:45.000Z,11.2
2023-04-28T15:38:51.000Z,11.6
2023-04-28T15:39:57.000Z,12.2
2023-04-28T15:41:03.000Z,11.6
2023-04-28T15:42:09.000Z,11.6
2023-04-28T15:43:15.000Z,11.6
2023-04-28T15:44:21.000Z,10.9
2023-04-28T15:45:27.000Z,11.2
2023-04-28T15:46:33.000Z,11.9
2023-04-28T15:47:40.000Z,11.9
2023-04-28T15:49:52.000Z,11.2
2023-04-28T15:50:58.000Z,12.5
2023-04-28T15:52:03.000Z,12.2
2023-04-28T15:53:09.000Z,12.2
2023-04-28T15:54:15.000Z,12.5
2023-04-28T15:55:21.000Z,11.9
2023-04-28T15:57:33.000Z,11.6
2023-04-28T15:58:39.000Z,11.9
2023-04-28T16:00:51.000Z,11.9
2023-04-28T16:01:57.000Z,11.6
2023-04-28T16:03:04.000Z,11.6
2023-04-28T16:04:10.000Z,11.6
2023-04-28T16:05:16.000Z,11.2
2023-04-28T16:06:22.000Z,11.9
2023-04-28T16:07:27.000Z,11.2
2023-04-28T16:08:33.000Z,11.6
2023-04-28T16:09:39.000Z,11.2
2023-04-28T16:10:45.000Z,12.2
2023-04-28T16:11:51.000Z,11.9
2023-04-28T16:12:57.000Z,11.6
2023-04-28T16:14:03.000Z,11.2
2023-04-28T16:15:09.000Z,11.9
2023-04-28T16:16:15.000Z,11.6
2023-04-28T16:17:21.000Z,11.6
2023-04-28T16:18:28.000Z,12.5
2023-04-28T16:19:34.000Z,11.2
2023-04-28T16:20:39.000Z,12.5
2023-04-28T16:21:44.000Z,11.9
2023-04-28T16:22:50.000Z,11.6
2023-04-28T16:23:56.000Z,11.2
2023-04-28T16:25:02.000Z,11.9
2023-04-28T16:26:08.000Z,12.2
2023-04-28T16:27:14.000Z,12.2
2023-04-28T16:28:20.000Z,11.9
2023-04-28T16:29:27.000Z,11.9
2023-04-28T16:30:33.000Z,11.9
2023-04-28T16:31:39.000Z,10.9
2023-04-28T16:32:45.000Z,11.2
2023-04-28T16:33:51.000Z,11.2
2023-04-28T16:34:56.000Z,11.2
2023-04-28T16:36:02.000Z,11.6
2023-04-28T16:37:08.000Z,12.2
2023-04-28T16:39:20.000Z,11.6
2023-04-28T16:40:25.000Z,12.2
2023-04-28T16:41:31.000Z,11.9
2023-04-28T16:42:37.000Z,12.2
2023-04-28T16:43:43.000Z,11.6
2023-04-28T16:44:50.000Z,11.9
2023-04-28T16:45:56.000Z,12.2
2023-04-28T16:47:02.000Z,11.6
2023-04-28T16:48:08.000Z,11.9
2023-04-28T16:49:14.000Z,11.6
2023-04-28T16:50:20.000Z,11.2
2023-04-28T16:51:26.000Z,11.6
2023-04-28T16:52:32.000Z,11.6
2023-04-28T16:53:38.000Z,11.6
2023-04-28T16:55:49.000Z,11.9
2023-04-28T16:56:55.000Z,11.6
2023-04-28T16:58:01.000Z,11.9
2023-04-28T16:59:07.000Z,11.9
2023-04-28T17:00:14.000Z,11.2
2023-04-28T17:01:20.000Z,11.9
2023-04-28T17:02:26.000Z,11.6
2023-04-28T17:03:32.000Z,11.2
2023-04-28T17:04:38.000Z,11.6
2023-04-28T17:05:44.000Z,11.9
2023-04-28T17:06:50.000Z,11.9
2023-04-28T17:07:56.000Z,11.9
2023-04-28T17:09:02.000Z,11.6
2023-04-28T17:10:08.000Z,12.2
2023-04-28T17:11:13.000Z,11.6
2023-04-28T17:12:19.000Z,11.2
2023-04-28T17:13:25.000Z,11.9
2023-04-28T17:14:31.000Z,11.6
2023-04-28T17:15:38.000Z,12.5
2023-04-28T17:16:44.000Z,11.9
2023-04-28T17:17:50.000Z,11.2
2023-04-28T17:18:56.000Z,11.6
2023-04-28T17:20:02.000Z,11.6
2023-04-28T17:21:08.000Z,11.6
2023-04-28T17:22:14.000Z,11.2
2023-04-28T17:23:20.000Z,11.9
2023-04-28T17:24:26.000Z,12.2
2023-04-28T17:25:32.000Z,11.6
2023-04-28T17:26:38.000Z,11.6
2023-04-28T17:27:45.000Z,11.6
2023-04-28T17:28:51.000Z,12.2
2023-04-28T17:29:56.000Z,11.2
2023-04-28T17:31:02.000Z,12.5
2023-04-28T17:32:08.000Z,11.9
2023-04-28T17:33:14.000Z,11.6
2023-04-28T17:34:20.000Z,11.6
2023-04-28T17:35:26.000Z,10.9
2023-04-28T17:36:32.000Z,11.6
2023-04-28T17:37:38.000Z,11.6
2023-04-28T17:39:50.000Z,11.2
2023-04-28T17:40:56.000Z,11.2
2023-04-28T17:42:02.000Z,11.9
2023-04-28T17:44:15.000Z,12.2
2023-04-28T17:45:20.000Z,11.2
2023-04-28T17:46:26.000Z,11.9
2023-04-28T17:47:32.000Z,12.2
2023-04-28T17:48:38.000Z,11.2
2023-04-28T17:49:44.000Z,11.9
2023-04-28T17:50:50.000Z,11.6
2023-04-28T17:51:56.000Z,11.9
2023-04-28T17:53:02.000Z,11.2
2023-04-28T17:54:08.000Z,11.6
2023-04-28T17:55:14.000Z,11.6